createdAt,value
2023-03-26T00:00:26.649Z,62.90
2023-03-26T00:05:29.445Z,62.91
2023-03-26T00:10:32.082Z,63.03
2023-03-26T00:15:37.930Z,63.54
2023-03-26T00:20:41.827Z,63.11
2023-03-26T00:25:46.256Z,63.49
2023-03-26T00:30:51.337Z,64.07
2023-03-26T00:35:56.015Z,63.59
2023-03-26T00:41:06.297Z,64.05
2023-03-26T00:46:11.598Z,64.09
2023-03-26T00:51:16.375Z,63.50
2023-03-26T00:56:19.573Z,63.18
2023-03-26T01:01:29.133Z,62.92
2023-03-26T01:06:36.660Z,63.29
2023-03-26T01:11:39.519Z,63.60
2023-03-26T01:16:47.511Z,63.69
2023-03-26T01:21:50.148Z,64.18
2023-03-26T01:26:53.077Z,64.24
2023-03-26T01:32:14.369Z,65.10
2023-03-26T01:37:30.752Z,65.99
2023-03-26T01:43:05.658Z,67.16
2023-03-26T01:48:08.417Z,67.67
2023-03-26T01:53:29.814Z,68.65
2023-03-26T01:58:40.053Z,68.93
2023-03-26T02:03:59.493Z,69.18
2023-03-26T02:09:11.269Z,68.85
2023-03-26T02:14:15.128Z,69.01
2023-03-26T02:19:22.343Z,68.96
2023-03-26T02:24:28.066Z,69.07
2023-03-26T02:29:37.989Z,68.78
2023-03-26T02:34:42.171Z,68.61
2023-03-26T02:39:45.624Z,68.13
2023-03-26T02:45:01.785Z,68.74
2023-03-26T02:50:22.590Z,68.75
2023-03-26T02:55:45.579Z,68.83
2023-03-26T03:00:51.041Z,69.08
2023-03-26T03:06:22.269Z,68.85
2023-03-26T03:11:27.646Z,68.94
2023-03-26T03:16:30.954Z,69.52
2023-03-26T03:21:38.643Z,69.36
2023-03-26T03:26:42.559Z,69.54
2023-03-26T03:31:57.409Z,69.11
2023-03-26T03:37:24.861Z,68.73
2023-03-26T03:42:30.004Z,67.90
2023-03-26T03:47:36.593Z,68.32
2023-03-26T03:52:59.338Z,67.84
2023-03-26T03:58:02.427Z,67.81
2023-03-26T04:03:06.685Z,67.77
2023-03-26T04:08:10.352Z,68.32
2023-03-26T04:13:26.958Z,67.51
2023-03-26T04:18:53.713Z,67.50
2023-03-26T04:23:57.140Z,67.30
2023-03-26T04:29:24.673Z,67.20
2023-03-26T04:34:30.209Z,67.08
2023-03-26T04:39:42.131Z,66.64
2023-03-26T04:45:04.943Z,65.72
2023-03-26T04:50:09.576Z,66.00
2023-03-26T04:55:36.907Z,65.40
2023-03-26T05:00:47.897Z,64.93
2023-03-26T05:05:51.830Z,64.61
2023-03-26T05:10:57.592Z,64.04
2023-03-26T05:16:07.510Z,63.42
2023-03-26T05:21:16.242Z,62.80
2023-03-26T05:26:20.264Z,62.37
2023-03-26T05:31:23.386Z,61.61
2023-03-26T05:36:30.245Z,61.01
2023-03-26T05:41:53.205Z,60.44
2023-03-26T05:46:58.112Z,59.28
2023-03-26T05:52:02.759Z,57.94
2023-03-26T05:57:13.885Z,56.55
2023-03-26T06:02:35.313Z,55.14
2023-03-26T06:07:57.885Z,53.77
2023-03-26T06:13:07.063Z,52.54
2023-03-26T06:18:13.258Z,51.38
2023-03-26T06:23:36.248Z,50.38
2023-03-26T06:28:38.864Z,49.42
2023-03-26T06:34:07.526Z,48.27
2023-03-26T06:39:10.733Z,47.58
2023-03-26T06:44:21.610Z,46.83
2023-03-26T06:49:44.243Z,45.98
2023-03-26T06:55:08.900Z,45.26
2023-03-26T07:00:33.862Z,44.81
2023-03-26T07:05:54.917Z,44.18
2023-03-26T07:11:29.682Z,43.89
2023-03-26T07:16:51.774Z,43.23
2023-03-26T07:22:21.804Z,42.18
2023-03-26T07:27:43.438Z,41.57
2023-03-26T07:32:46.770Z,40.27
2023-03-26T07:38:27.639Z,38.28
2023-03-26T07:43:54.434Z,38.38
2023-03-26T07:49:33.022Z,37.61
2023-03-26T07:54:59.806Z,37.30
2023-03-26T08:00:42.424Z,37.34
2023-03-26T08:05:53.950Z,36.83
2023-03-26T08:11:54.373Z,36.15
2023-03-26T08:17:06.156Z,35.65
2023-03-26T08:22:15.798Z,34.67
2023-03-26T08:27:40.554Z,34.82
2023-03-26T08:32:49.557Z,34.17
2023-03-26T08:37:52.397Z,34.11
2023-03-26T08:43:24.834Z,33.35
2023-03-26T08:48:52.109Z,33.30
2023-03-26T08:54:12.672Z,32.03
2023-03-26T08:59:33.040Z,31.40
2023-03-26T09:05:13.214Z,31.00
2023-03-26T09:10:41.527Z,30.53
2023-03-26T09:16:05.620Z,30.77
2023-03-26T09:21:14.052Z,30.68
2023-03-26T09:26:59.610Z,30.18
2023-03-26T09:32:31.790Z,29.88
2023-03-26T09:37:56.794Z,29.67
2023-03-26T09:43:34.612Z,29.29
2023-03-26T09:48:46.287Z,28.90
2023-03-26T09:54:07.017Z,27.94
2023-03-26T09:59:30.443Z,28.05
2023-03-26T10:05:05.303Z,28.04
2023-03-26T10:10:35.721Z,28.10
2023-03-26T10:16:05.904Z,28.65
2023-03-26T10:21:24.621Z,28.98
2023-03-26T10:26:36.841Z,27.91
2023-03-26T10:31:47.903Z,27.92
2023-03-26T10:37:25.350Z,28.11
2023-03-26T10:42:46.087Z,28.20
2023-03-26T10:48:11.627Z,28.49
2023-03-26T10:53:28.219Z,28.44
2023-03-26T10:58:48.804Z,28.81
2023-03-26T11:04:16.609Z,28.53
2023-03-26T11:09:18.961Z,28.27
2023-03-26T11:14:34.220Z,28.59
2023-03-26T11:19:41.957Z,28.03
2023-03-26T11:24:56.191Z,28.56
2023-03-26T11:30:17.407Z,28.00
2023-03-26T11:35:40.590Z,27.80
2023-03-26T11:40:51.209Z,26.98
2023-03-26T11:46:20.998Z,27.16
2023-03-26T11:51:34.424Z,26.46
2023-03-26T11:57:04.541Z,26.77
2023-03-26T12:02:14.080Z,26.82
2023-03-26T12:07:32.187Z,26.41
2023-03-26T12:12:41.166Z,26.52
2023-03-26T12:17:44.060Z,26.50
2023-03-26T12:22:48.022Z,26.57
2023-03-26T12:27:53.273Z,26.71
2023-03-26T12:33:04.054Z,26.85
2023-03-26T12:38:35.991Z,27.10
2023-03-26T12:44:55.269Z,27.65
2023-03-26T12:49:15.925Z,28.12
2023-03-26T12:54:36.763Z,28.55
2023-03-26T13:00:02.316Z,29.14
2023-03-26T13:05:33.246Z,29.59
2023-03-26T13:10:42.214Z,30.07
2023-03-26T13:15:52.787Z,30.69
2023-03-26T13:21:38.497Z,30.80
2023-03-26T13:26:54.879Z,31.18
2023-03-26T13:32:25.225Z,31.04
2023-03-26T13:37:42.430Z,31.39
2023-03-26T13:43:23.617Z,31.33
2023-03-26T13:48:32.674Z,31.37
2023-03-26T13:54:04.944Z,31.75
2023-03-26T13:59:23.016Z,31.57
2023-03-26T14:04:37.200Z,31.71
2023-03-26T14:10:11.634Z,31.74
2023-03-26T14:15:36.752Z,31.89
2023-03-26T14:21:00.817Z,32.21
2023-03-26T14:26:38.364Z,33.03
2023-03-26T14:32:01.764Z,33.53
2023-03-26T14:37:35.187Z,33.62
2023-03-26T14:42:43.786Z,34.54
2023-03-26T14:48:20.244Z,34.98
2023-03-26T14:53:33.722Z,35.64
2023-03-26T14:59:07.829Z,36.70
2023-03-26T15:04:34.759Z,37.30
2023-03-26T15:10:01.537Z,37.92
2023-03-26T15:15:45.720Z,38.43
2023-03-26T15:21:30.892Z,38.48
2023-03-26T15:26:41.981Z,38.79
2023-03-26T15:31:47.788Z,39.92
2023-03-26T15:37:12.197Z,40.52
2023-03-26T15:42:17.816Z,40.59
2023-03-26T15:47:41.456Z,40.82
2023-03-26T15:53:09.912Z,41.74
2023-03-26T15:58:53.747Z,42.25
2023-03-26T16:04:30.252Z,42.99
2023-03-26T16:09:47.959Z,43.71
2023-03-26T16:15:21.518Z,43.95
2023-03-26T16:20:33.224Z,43.52
2023-03-26T16:26:27.882Z,44.24
2023-03-26T16:31:38.692Z,45.51
2023-03-26T16:36:51.829Z,46.41
2023-03-26T16:42:23.708Z,47.15
2023-03-26T16:47:38.956Z,46.90
2023-03-26T16:53:02.902Z,46.09
2023-03-26T16:58:22.119Z,45.84
2023-03-26T17:03:52.255Z,45.61
2023-03-26T17:09:07.510Z,45.68
2023-03-26T17:14:11.054Z,46.39
2023-03-26T17:19:42.193Z,47.22
2023-03-26T17:24:54.512Z,48.08
2023-03-26T17:30:54.049Z,49.32
2023-03-26T17:36:12.064Z,50.04
2023-03-26T17:41:35.468Z,51.05
2023-03-26T17:46:48.478Z,52.21
2023-03-26T17:51:54.462Z,53.01
2023-03-26T17:57:04.323Z,53.84
2023-03-26T18:02:16.257Z,54.71
2023-03-26T18:07:44.303Z,55.01
2023-03-26T18:13:05.252Z,55.42
2023-03-26T18:18:20.082Z,55.83
2023-03-26T18:23:47.600Z,55.91
2023-03-26T18:29:08.560Z,56.07
2023-03-26T18:34:20.362Z,56.03
2023-03-26T18:39:22.828Z,55.82
2023-03-26T18:44:25.645Z,56.20
2023-03-26T18:49:30.040Z,57.02
2023-03-26T18:54:42.912Z,58.57
2023-03-26T18:59:46.036Z,59.00
2023-03-26T19:04:51.152Z,59.29
2023-03-26T19:09:56.694Z,59.86
2023-03-26T19:15:09.835Z,60.13
2023-03-26T19:20:22.280Z,60.40
2023-03-26T19:25:55.107Z,60.51
2023-03-26T19:31:26.182Z,60.86
2023-03-26T19:36:34.906Z,61.42
2023-03-26T19:41:42.386Z,61.56
2023-03-26T19:46:53.887Z,61.53
2023-03-26T19:52:15.357Z,61.89
2023-03-26T19:57:18.286Z,62.30
2023-03-26T20:02:20.856Z,62.47
2023-03-26T20:07:35.318Z,62.75
2023-03-26T20:12:38.908Z,63.20
2023-03-26T20:17:43.117Z,63.38
2023-03-26T20:22:47.258Z,64.09
2023-03-26T20:27:49.926Z,65.11
2023-03-26T20:33:12.589Z,65.70
2023-03-26T20:38:17.077Z,66.30
2023-03-26T20:43:24.424Z,66.69
2023-03-26T20:48:26.951Z,67.19
2023-03-26T20:53:30.721Z,68.20
2023-03-26T20:58:33.443Z,68.47
2023-03-26T21:03:54.301Z,68.88
2023-03-26T21:08:57.143Z,69.63
2023-03-26T21:14:10.377Z,69.67
2023-03-26T21:19:16.058Z,69.80
2023-03-26T21:24:54.449Z,70.67
2023-03-26T21:29:58.395Z,70.88
2023-03-26T21:35:01.405Z,70.66
2023-03-26T21:40:23.808Z,70.89
2023-03-26T21:45:26.956Z,71.17
2023-03-26T21:50:30.084Z,70.93
2023-03-26T21:55:51.826Z,71.21
2023-03-26T22:01:13.098Z,70.84
2023-03-26T22:06:32.475Z,70.79
2023-03-26T22:11:35.020Z,70.10
2023-03-26T22:16:37.888Z,69.50
2023-03-26T22:21:40.472Z,69.69
2023-03-26T22:26:43.182Z,69.54
2023-03-26T22:31:45.893Z,69.99
2023-03-26T22:36:48.521Z,70.01
2023-03-26T22:41:51.092Z,69.86
2023-03-26T22:46:54.751Z,69.20
2023-03-26T22:51:57.357Z,69.58
2023-03-26T22:57:00.370Z,69.25
2023-03-26T23:02:03.073Z,69.90
2023-03-26T23:07:05.923Z,69.81
2023-03-26T23:12:08.477Z,70.21
2023-03-26T23:17:14.805Z,70.78
2023-03-26T23:22:20.355Z,71.34
2023-03-26T23:27:23.170Z,72.01
2023-03-26T23:32:25.902Z,72.64
2023-03-26T23:37:29.731Z,73.83
2023-03-26T23:42:50.565Z,74.86
2023-03-26T23:47:53.172Z,75.38
2023-03-26T23:52:59.100Z,75.89
2023-03-26T23:58:02.818Z,75.87
